• Join FlightAware (Why Join?)
  • Login
  • US Flag 
05:23PM EDT


 

Airport Tracker/Info


-or-


 

Live Flight TrackerFlight Track Log ✈ N546QS ✈ 02-Jun-2013 ✈ KLEB - LEPA / PMI

Flight Track Log - Related Links

Times and Time Zones

All times are in EDT time to prevent confusion due to time zone crossing. See the N546QS flight status page for this flight to view local times or setup timezone preferences in your user account.

Time Position Orientation Groundspeed Altitude Reporting Facility
EDT Latitude Longitude Course Direction KTS MPH feet Rate Location/Type
08:10PM 43.6711 -72.0986 55° Northeast 466 536 6,200  Level Boston Center
08:11PM 43.6936 -71.9778 76° East 367 422 9,700 3,300 Climbing Boston Center
08:12PM 43.8837 -71.2160 55° Northeast  Level FlightAware Approximate
08:12PM 43.7181 -71.8569 74° East 338 389 12,800  Level Boston Center
08:13PM 43.7611 -71.7358 64° Northeast 331 381 16,000 3,000 Climbing Boston Center
08:14PM 43.8083 -71.6144 62° Northeast 338 389 18,800 2,580 Climbing Boston Center
08:15PM 43.8594 -71.4928 60° Northeast 351 404 21,200 2,340 Climbing Boston Center
08:16PM 43.9231 -71.3794 52° Northeast 363 418 23,500 1,920 Climbing Boston Center
08:17PM 43.9906 -71.2542 53° Northeast 385 443 25,100 1,680 Climbing Boston Center
08:18PM 44.0642 -71.1169 53° Northeast 418 481 26,900 1,860 Climbing Boston Center
08:19PM 44.1142 -70.9594 66° East 432 497 28,900 1,980 Climbing Boston Center
08:20PM 44.1600 -70.7992 68° East 437 503 30,900 1,980 Climbing Boston Center
08:21PM 44.1886 -70.6247 77° East 449 517 32,900 1,980 Climbing Boston Center
08:22PM 44.2172 -70.4589 76° East 449 517 34,900 1,980 Climbing Boston Center
08:23PM 44.2433 -70.2928 78° East 444 511 36,900 1,740 Climbing Boston Center
08:24PM 44.2694 -70.1294 77° East 439 505 38,400 1,260 Climbing Boston Center
08:25PM 44.2950 -69.9631 78° East 434 499 39,500 1,020 Climbing Boston Center
08:26PM 44.3206 -69.7964 78° East 434 499 40,500 720 Climbing Boston Center
08:27PM 44.3478 -69.6239 77° East 434 499 41,000 240 Climbing Boston Center
08:28PM 44.3711 -69.4806 77° East 440 506 41,000  Level Boston Center
08:29PM 44.4050 -69.2608 78° East 461 531 41,000  Level Boston Center
08:30PM 44.4311 -69.0792 79° East 474 545 41,000  Level Boston Center
08:31PM 44.4589 -68.8972 78° East 474 545 41,000  Level Boston Center
08:32PM 44.4867 -68.7150 78° East 474 545 41,000  Level Boston Center
08:33PM 44.5117 -68.5300 79° East 474 545 41,000  Level Boston Center
08:34PM 44.5386 -68.3475 78° East 474 545 41,000  Level Boston Center
08:35PM 44.5633 -68.1622 79° East 474 545 41,000  Level Boston Center
08:36PM 44.5944 -67.9383 79° East 474 545 41,000  Level Boston Center
08:37PM 44.6203 -67.7553 79° East 474 545 41,000  Level Boston Center
08:38PM 44.6458 -67.5664 79° East 474 545 41,000  Level Boston Center
08:39PM 44.6733 -67.3831 78° East 474 545 41,000  Level Boston Center
08:40PM 44.6667 -67.2167 93° East 480 552 41,000  Level Moncton Center
08:41PM 44.7000 -67.0333 76° East 480 552 41,000  Level Moncton Center
08:42PM 44.7333 -66.8500 76° East 480 552 41,000  Level Moncton Center
08:43PM 44.7500 -66.6500 83° East 480 552 41,000  Level Moncton Center
08:44PM 44.7667 -66.4667 83° East 480 552 41,000  Level Moncton Center
08:45PM 44.7833 -66.2833 83° East 490 564 41,000  Level Moncton Center
08:46PM 44.8333 -66.1000 69° East 490 564 41,000  Level Moncton Center
08:47PM 44.8500 -65.9333 82° East 490 564 41,000  Level Moncton Center
08:48PM 44.8667 -65.7167 84° East 490 564 41,000  Level Moncton Center
08:49PM 44.8833 -65.5333 83° East 490 564 41,000  Level Moncton Center
08:50PM 44.9000 -65.3333 83° East 500 575 41,000  Level Moncton Center
08:51PM 44.9333 -65.1500 76° East 500 575 41,000  Level Moncton Center
08:52PM 44.9500 -64.9333 84° East 490 564 41,000  Level Moncton Center
08:53PM 44.9667 -64.7500 83° East 490 564 41,000  Level Moncton Center
08:54PM 44.9833 -64.5667 83° East 490 564 41,000  Level Moncton Center
08:55PM 45.0000 -64.3667 83° East 490 564 41,000  Level Moncton Center
08:56PM 45.0333 -64.1833 76° East 490 564 41,000  Level Moncton Center
08:57PM 45.0500 -64.0000 83° East 490 564 41,000  Level Moncton Center
08:58PM 45.0667 -63.8000 83° East 490 564 41,000  Level Moncton Center
08:59PM 45.0833 -63.6167 83° East 490 564 41,000  Level Moncton Center
09:00PM 45.1167 -63.4333 75° East 490 564 41,000  Level Moncton Center
09:01PM 45.1333 -63.2333 83° East 490 564 41,000  Level Moncton Center
09:02PM 45.1500 -63.0167 84° East 490 564 41,000  Level Moncton Center
09:03PM 45.1667 -62.8333 83° East 490 564 41,000  Level Moncton Center
09:04PM 45.1833 -62.6667 82° East 490 564 41,000  Level Moncton Center
09:05PM 45.1833 -62.4500 90° East 490 564 41,000  Level Moncton Center
09:06PM 45.2167 -62.2667 75° East 490 564 41,000  Level Moncton Center
09:07PM 45.2333 -62.0667 83° East 490 564 41,000  Level Moncton Center
09:08PM 45.2500 -61.8833 83° East 490 564 41,000  Level Moncton Center
09:09PM 45.2500 -61.6833 90° East 490 564 41,000  Level Moncton Center
09:10PM 45.2833 -61.5000 75° East 490 564 41,000  Level Moncton Center
09:11PM 45.3000 -61.3000 83° East 490 564 41,000  Level Moncton Center
09:12PM 45.3167 -61.1167 83° East 490 564 41,000  Level Moncton Center
09:13PM 45.3167 -60.9000 90° East 500 575 41,000  Level Moncton Center
09:14PM 45.3333 -60.7667 80° East 500 575 41,000  Level Gander Center
09:14PM 45.3333 -60.7000 90° East 500 575 41,000  Level Moncton Center
09:15PM 45.3500 -60.5167 83° East 500 575 41,000  Level Moncton Center
09:16PM 45.3667 -60.3167 83° East 500 575 41,000  Level Moncton Center
09:17PM 45.3833 -60.1333 83° East 500 575 41,000  Level Moncton Center
09:18PM 45.3833 -59.9500 90° East 500 575 41,000  Level Moncton Center
09:19PM 45.4167 -59.7500 77° East 500 575 41,000  Level Moncton Center
09:20PM 45.4167 -59.6000 90° East 500 575 41,000  Level Gander Center
09:21PM 45.4333 -59.4000 83° East 500 575 41,000  Level Gander Center
09:21PM 45.4333 -59.3500 90° East 500 575 41,000  Level Moncton Center
09:22PM 45.4333 -59.1500 90° East 500 575 41,000  Level Moncton Center
09:23PM 45.4500 -59.0000 81° East 500 575 41,000  Level Gander Center
09:24PM 45.4667 -58.7833 84° East 500 575 41,000  Level Gander Center
09:24PM 45.4667 -58.7333 90° East 500 575 41,000  Level Moncton Center
09:25PM 45.4667 -58.5500 90° East 500 575 41,000  Level Moncton Center
09:26PM 45.4833 -58.3500 83° East 500 575 41,000  Level Moncton Center
09:27PM 45.5000 -58.1667 83° East 490 564 41,000  Level Moncton Center
09:28PM 45.5000 -58.0167 90° East 490 564 41,000  Level Gander Center
09:29PM 45.5000 -57.8333 90° East 490 564 41,000  Level Gander Center
09:29PM 45.5167 -57.7833 65° Northeast 490 564 41,000  Level Moncton Center
09:30PM 45.5167 -57.5833 90° East 490 564 41,000  Level Moncton Center
09:31PM 45.5333 -57.3667 84° East 490 564 41,000  Level Moncton Center
09:32PM 45.5333 -57.2333 90° East 500 575 41,000  Level Gander Center
09:33PM 45.5500 -57.0500 83° East 490 564 41,000  Level Gander Center
09:33PM 45.5500 -56.9833 90° East 490 564 41,000  Level Moncton Center
09:34PM 45.5500 -56.8000 90° East 490 564 41,000  Level Moncton Center
09:35PM 45.5667 -56.6000 83° East 490 564 41,000  Level Moncton Center
09:36PM 45.5833 -56.4000 83° East 490 564 41,000  Level Moncton Center
09:37PM 45.6167 -56.2500 72° East 500 575 41,000  Level Gander Center
09:38PM 45.6167 -56.0500 90° East 500 575 41,000  Level Gander Center
09:39PM 45.6500 -55.8667 75° East 500 575 41,000  Level Gander Center
09:40PM 45.6500 -55.6667 90° East 500 575 41,000  Level Gander Center
09:40PM 45.6667 -55.6000 70° East 500 575 41,000  Level Moncton Center
09:41PM 45.6667 -55.4333 90° East 500 575 41,000  Level Moncton Center
09:42PM 45.6833 -55.2333 83° East 500 575 41,000  Level Moncton Center
09:43PM 45.7000 -55.0667 82° East 500 575 41,000  Level Gander Center
09:44PM 45.7167 -54.8667 83° East 500 575 41,000  Level Gander Center
09:44PM 45.7167 -54.8167 90° East 510 587 41,000  Level Moncton Center
09:45PM 45.7333 -54.6333 83° East 500 575 41,000  Level Moncton Center
09:46PM 45.7500 -54.4333 83° East 510 587 41,000  Level Moncton Center
09:47PM 45.7667 -54.2667 82° East 510 587 41,000  Level Gander Center
09:48PM 45.7667 -54.0833 90° East 510 587 41,000  Level Gander Center
09:49PM 45.8000 -53.8833 76° East 510 587 41,000  Level Gander Center
09:50PM 45.8000 -53.6667 90° East 510 587 41,000  Level Gander Center
09:51PM 45.8167 -53.4667 83° East 510 587 41,000  Level Gander Center
09:52PM 45.8333 -53.2500 84° East 510 587 41,000  Level Gander Center
09:53PM 45.8333 -53.0667 90° East 510 587 41,000  Level Gander Center
09:54PM 45.8500 -52.8333 84° East 510 587 41,000  Level Gander Center
09:54PM 45.8667 -52.8000 54° Northeast 510 587 41,000  Level Moncton Center
09:55PM 45.8667 -52.6167 90° East 520 598 41,000  Level Gander Center
09:56PM 45.8833 -52.4000 84° East 510 587 41,000  Level Gander Center
09:57PM 45.8833 -52.2167 90° East 520 598 41,000  Level Gander Center
09:58PM 45.9000 -52.0167 83° East 520 598 41,000  Level Gander Center
09:59PM 45.9000 -51.8000 90° East 520 598 41,000  Level Gander Center
10:00PM 45.9167 -51.6000 83° East 520 598 41,000  Level Gander Center
10:01PM 45.9333 -51.3833 84° East 520 598 41,000  Level Gander Center
10:02PM 45.9333 -51.1833 90° East 510 587 41,000  Level Gander Center
10:03PM 45.9500 -51.0167 82° East 520 598 41,000  Level Gander Center
10:04PM 45.9667 -50.8000 84° East 520 598 41,000  Level Gander Center
10:05PM 45.9500 -50.6000 97° East 520 598 41,000  Level Gander Center
10:06PM 45.9667 -50.3833 84° East 520 598 41,000  Level Gander Center
10:07PM 45.9667 -50.1667 90° East 530 610 41,000  Level Gander Center
10:08PM 45.9667 -49.9500 90° East 530 610 41,000  Level Gander Center
10:09PM 45.9667 -49.7500 90° East 530 610 41,000  Level Gander Center
10:10PM 45.9667 -49.5333 90° East 530 610 41,000  Level Gander Center
10:11PM 45.9333 -49.3333 103° East 530 610 41,000  Level Gander Center
10:13PM 45.9178 -49.0712 95° East  Level FlightAware Approximate
10:20PM 45.8266 -47.6977 95° East  Level FlightAware Approximate
10:21PM 45.8122 -47.5018 96° East  Level FlightAware Approximate
10:22PM 45.7975 -47.3061 96° East  Level FlightAware Approximate
10:23PM 45.7825 -47.1105 96° East  Level FlightAware Approximate
10:24PM 45.7671 -46.9150 96° East  Level FlightAware Approximate
10:25PM 45.7514 -46.7195 97° East  Level FlightAware Approximate
10:26PM 45.7354 -46.5242 97° East  Level FlightAware Approximate
10:27PM 45.7190 -46.3290 97° East  Level FlightAware Approximate
10:28PM 45.7023 -46.1340 97° East  Level FlightAware Approximate
10:29PM 45.6852 -45.9390 97° East  Level FlightAware Approximate
10:30PM 45.6679 -45.7442 97° East  Level FlightAware Approximate
10:31PM 45.6502 -45.5494 97° East  Level FlightAware Approximate
10:32PM 45.6321 -45.3549 97° East  Level FlightAware Approximate
10:33PM 45.6138 -45.1604 98° East  Level FlightAware Approximate
10:34PM 45.5951 -44.9660 98° East  Level FlightAware Approximate
10:35PM 45.5761 -44.7718 98° East  Level FlightAware Approximate
10:36PM 45.5567 -44.5778 98° East  Level FlightAware Approximate
10:37PM 45.5370 -44.3838 98° East  Level FlightAware Approximate
10:38PM 45.5171 -44.1900 98° East  Level FlightAware Approximate
10:39PM 45.4967 -43.9964 98° East  Level FlightAware Approximate
10:40PM 45.4761 -43.8028 99° East  Level FlightAware Approximate
10:41PM 45.4551 -43.6095 99° East  Level FlightAware Approximate
10:42PM 45.4338 -43.4162 99° East  Level FlightAware Approximate
10:43PM 45.4121 -43.2231 99° East  Level FlightAware Approximate
10:44PM 45.3902 -43.0302 99° East  Level FlightAware Approximate
10:45PM 45.3679 -42.8374 99° East  Level FlightAware Approximate
10:46PM 45.3453 -42.6448 99° East  Level FlightAware Approximate
10:47PM 45.3223 -42.4523 100° East  Level FlightAware Approximate
10:48PM 45.2991 -42.2600 100° East  Level FlightAware Approximate
10:49PM 45.2755 -42.0678 100° East  Level FlightAware Approximate
10:50PM 45.2516 -41.8758 100° East  Level FlightAware Approximate
10:51PM 45.2274 -41.6840 100° East  Level FlightAware Approximate
10:52PM 45.2028 -41.4923 100° East  Level FlightAware Approximate
10:53PM 45.1780 -41.3008 100° East  Level FlightAware Approximate
10:54PM 45.1528 -41.1095 101° East  Level FlightAware Approximate
10:55PM 45.1273 -40.9183 101° East  Level FlightAware Approximate
10:56PM 45.1015 -40.7273 101° East  Level FlightAware Approximate
10:56PM 45.0000 -40.0000 102° East 548 631 41,000  Level ETMS Enhanced Traffic Management System
10:57PM 45.0753 -40.5365 101° East  Level FlightAware Approximate
10:58PM 45.0489 -40.3458 101° East  Level FlightAware Approximate
10:59PM 45.0221 -40.1553 101° East  Level FlightAware Approximate
11:00PM 44.9943 -39.9649 103° East  Level FlightAware Approximate
11:01PM 44.9635 -39.7758 103° East  Level FlightAware Approximate
11:02PM 44.7686 -38.5316 103° East 548 631 41,000  Level FlightAware Transoceanic
11:03PM 44.7340 -38.3228 103° East 548 631 41,000  Level FlightAware Transoceanic
11:04PM 44.6990 -38.1143 103° East 548 631 41,000  Level FlightAware Transoceanic
11:05PM 44.6637 -37.9060 103° East 548 631 41,000  Level FlightAware Transoceanic
11:06PM 44.6280 -37.6980 104° East 548 631 41,000  Level FlightAware Transoceanic
11:07PM 44.5919 -37.4902 104° East 548 631 41,000  Level FlightAware Transoceanic
11:08PM 44.5554 -37.2827 104° East 548 631 41,000  Level FlightAware Transoceanic
11:09PM 44.5185 -37.0754 104° East 548 631 41,000  Level FlightAware Transoceanic
11:10PM 44.4813 -36.8684 104° East 548 631 41,000  Level FlightAware Transoceanic
11:11PM 44.4437 -36.6617 104° East 548 631 41,000  Level FlightAware Transoceanic
11:12PM 44.4057 -36.4552 105° East 548 631 41,000  Level FlightAware Transoceanic
11:13PM 44.3674 -36.2491 105° East 548 631 41,000  Level FlightAware Transoceanic
11:14PM 44.3287 -36.0431 105° East 548 631 41,000  Level FlightAware Transoceanic
11:15PM 44.2896 -35.8375 105° East 548 631 41,000  Level FlightAware Transoceanic
11:16PM 44.2501 -35.6321 105° East 548 631 41,000  Level FlightAware Transoceanic
11:17PM 44.2103 -35.4270 105° East 548 631 41,000  Level FlightAware Transoceanic
11:18PM 44.1701 -35.2222 105° East 548 631 41,000  Level FlightAware Transoceanic
11:19PM 44.1295 -35.0177 106° East 548 631 41,000  Level FlightAware Transoceanic
11:20PM 44.0886 -34.8134 106° East 548 631 41,000  Level FlightAware Transoceanic
11:21PM 44.0473 -34.6094 106° East 548 631 41,000  Level FlightAware Transoceanic
11:22PM 44.0057 -34.4058 106° East 548 631 41,000  Level FlightAware Transoceanic
11:23PM 43.9637 -34.2024 106° East 548 631 41,000  Level FlightAware Transoceanic
11:24PM 43.9213 -33.9992 106° East 548 631 41,000  Level FlightAware Transoceanic
11:25PM 43.8786 -33.7964 106° East 548 631 41,000  Level FlightAware Transoceanic
11:26PM 43.8355 -33.5939 107° East 548 631 41,000  Level FlightAware Transoceanic
11:27PM 43.7921 -33.3917 107° East 548 631 41,000  Level FlightAware Transoceanic
11:28PM 43.7483 -33.1897 107° East 548 631 41,000  Level FlightAware Transoceanic
11:29PM 43.7041 -32.9881 107° East 548 631 41,000  Level FlightAware Transoceanic
11:30PM 43.6596 -32.7868 107° East 548 631 41,000  Level FlightAware Transoceanic
11:31PM 43.6148 -32.5857 107° East 548 631 41,000  Level FlightAware Transoceanic
11:32PM 43.5696 -32.3850 107° East 548 631 41,000  Level FlightAware Transoceanic
11:33PM 43.5240 -32.1845 107° East 548 631 41,000  Level FlightAware Transoceanic
11:34PM 43.4781 -31.9844 108° East 548 631 41,000  Level FlightAware Transoceanic
11:35PM 43.4318 -31.7845 108° East 548 631 41,000  Level FlightAware Transoceanic
11:36PM 43.3852 -31.5850 108° East 548 631 41,000  Level FlightAware Transoceanic
11:37PM 43.3383 -31.3858 108° East 548 631 41,000  Level FlightAware Transoceanic
11:38PM 43.2910 -31.1869 108° East 548 631 41,000  Level FlightAware Transoceanic
11:39PM 43.2433 -30.9883 108° East 548 631 41,000  Level FlightAware Transoceanic
11:40PM 43.1954 -30.7900 108° East 548 631 41,000  Level FlightAware Transoceanic
11:41PM 43.1470 -30.5920 109° East 548 631 41,000  Level FlightAware Transoceanic
11:42PM 43.0984 -30.3944 109° East 548 631 41,000  Level FlightAware Transoceanic
11:43PM 43.0494 -30.1970 109° East 548 631 41,000  Level FlightAware Transoceanic
11:44PM 43.0049 -30.0194 109° East  Level FlightAware Approximate
11:45PM 42.9602 -29.8421 109° East  Level FlightAware Approximate
11:46PM 42.9782 -29.8565 102° East  Level FlightAware Approximate
11:47PM 42.9501 -29.6730 102° East  Level FlightAware Approximate
11:48PM 42.9216 -29.4896 102° East  Level FlightAware Approximate
11:49PM 42.8929 -29.3064 102° East  Level FlightAware Approximate
11:50PM 42.8639 -29.1233 102° East  Level FlightAware Approximate
11:51PM 42.8346 -28.9405 102° East  Level FlightAware Approximate
11:52PM 42.8050 -28.7578 102° East  Level FlightAware Approximate
11:53PM 42.7751 -28.5752 103° East  Level FlightAware Approximate
11:54PM 42.7449 -28.3929 103° East  Level FlightAware Approximate
11:55PM 42.7144 -28.2107 103° East  Level FlightAware Approximate
11:56PM 42.6836 -28.0287 103° East  Level FlightAware Approximate
11:57PM 42.6526 -27.8469 103° East  Level FlightAware Approximate
11:58PM 42.6212 -27.6653 103° East  Level FlightAware Approximate
11:59PM 42.5896 -27.4839 103° East  Level FlightAware Approximate
12:00AM 42.5577 -27.3026 103° East  Level FlightAware Approximate
12:01AM 42.5255 -27.1216 104° East  Level FlightAware Approximate
12:02AM 42.4930 -26.9407 104° East  Level FlightAware Approximate
12:03AM 42.4603 -26.7600 104° East  Level FlightAware Approximate
12:04AM 42.4272 -26.5795 104° East  Level FlightAware Approximate
12:05AM 42.3939 -26.3992 104° East  Level FlightAware Approximate
12:06AM 42.3603 -26.2191 104° East  Level FlightAware Approximate
12:07AM 42.3264 -26.0391 104° East  Level FlightAware Approximate
12:08AM 42.2922 -25.8594 104° East  Level FlightAware Approximate
12:09AM 42.2577 -25.6799 104° East  Level FlightAware Approximate
12:10AM 42.2230 -25.5005 105° East  Level FlightAware Approximate
12:11AM 42.1880 -25.3214 105° East  Level FlightAware Approximate
12:12AM 42.1527 -25.1425 105° East  Level FlightAware Approximate
12:13AM 42.1171 -24.9637 105° East  Level FlightAware Approximate
12:14AM 42.0813 -24.7852 105° East  Level FlightAware Approximate
12:15AM 42.0451 -24.6068 105° East  Level FlightAware Approximate
12:16AM 42.0087 -24.4287 105° East  Level FlightAware Approximate
12:17AM 41.9721 -24.2508 105° East  Level FlightAware Approximate
12:18AM 41.9351 -24.0730 106° East  Level FlightAware Approximate
12:19AM 41.8979 -23.8955 106° East  Level FlightAware Approximate
12:20AM 41.8604 -23.7182 106° East  Level FlightAware Approximate
12:21AM 41.8226 -23.5411 106° East  Level FlightAware Approximate
12:22AM 41.7846 -23.3642 106° East  Level FlightAware Approximate
12:23AM 41.7463 -23.1875 106° East  Level FlightAware Approximate
12:24AM 41.7077 -23.0111 106° East  Level FlightAware Approximate
12:25AM 41.6688 -22.8348 106° East  Level FlightAware Approximate
12:26AM 41.6297 -22.6588 107° East  Level FlightAware Approximate
12:27AM 41.5903 -22.4830 107° East  Level FlightAware Approximate
12:28AM 41.5507 -22.3073 107° East  Level FlightAware Approximate
12:29AM 41.5107 -22.1319 107° East  Level FlightAware Approximate
12:30AM 41.4706 -21.9568 107° East  Level FlightAware Approximate
12:31AM 41.4301 -21.7818 107° East  Level FlightAware Approximate
12:32AM 41.3894 -21.6071 107° East  Level FlightAware Approximate
12:33AM 41.3484 -21.4325 107° East  Level FlightAware Approximate
12:34AM 41.3072 -21.2582 107° East  Level FlightAware Approximate
12:35AM 41.2656 -21.0842 108° East  Level FlightAware Approximate
12:36AM 41.2239 -20.9103 108° East  Level FlightAware Approximate
12:37AM 41.1818 -20.7367 108° East  Level FlightAware Approximate
12:38AM 41.1395 -20.5632 108° East  Level FlightAware Approximate
12:39AM 41.0970 -20.3901 108° East  Level FlightAware Approximate
12:40AM 41.0542 -20.2171 108° East  Level FlightAware Approximate
12:41AM 41.0111 -20.0443 108° East  Level FlightAware Approximate
12:42AM 40.9768 -19.8684 103° East  Level FlightAware Approximate
12:43AM 40.9454 -19.6915 103° East  Level FlightAware Approximate
12:44AM 40.9136 -19.5148 103° East  Level FlightAware Approximate
12:45AM 40.8816 -19.3382 103° East  Level FlightAware Approximate
12:46AM 40.8494 -19.1618 104° East  Level FlightAware Approximate
12:47AM 40.8169 -18.9856 104° East  Level FlightAware Approximate
12:48AM 40.7841 -18.8096 104° East  Level FlightAware Approximate
12:49AM 40.7510 -18.6337 104° East  Level FlightAware Approximate
12:50AM 40.7177 -18.4580 104° East  Level FlightAware Approximate
12:51AM 40.6841 -18.2825 104° East  Level FlightAware Approximate
12:52AM 40.6502 -18.1071 104° East  Level FlightAware Approximate
12:53AM 40.6161 -17.9320 104° East  Level FlightAware Approximate
12:54AM 40.5817 -17.7570 104° East  Level FlightAware Approximate
12:55AM 40.5471 -17.5822 105° East  Level FlightAware Approximate
12:56AM 40.5122 -17.4076 105° East  Level FlightAware Approximate
12:57AM 40.4770 -17.2332 105° East  Level FlightAware Approximate
12:58AM 40.4415 -17.0589 105° East  Level FlightAware Approximate
12:59AM 40.4058 -16.8848 105° East  Level FlightAware Approximate
01:00AM 40.3699 -16.7110 105° East  Level FlightAware Approximate
01:01AM 40.3337 -16.5373 105° East  Level FlightAware Approximate
01:02AM 40.2972 -16.3637 105° East  Level FlightAware Approximate
01:03AM 40.2604 -16.1904 105° East  Level FlightAware Approximate
01:04AM 40.2234 -16.0173 106° East  Level FlightAware Approximate
01:05AM 40.1862 -15.8443 106° East  Level FlightAware Approximate
01:06AM 40.1487 -15.6716 106° East  Level FlightAware Approximate
01:07AM 40.1109 -15.4990 106° East  Level FlightAware Approximate
01:08AM 40.0729 -15.3267 106° East  Level FlightAware Approximate
01:09AM 40.0346 -15.1545 106° East  Level FlightAware Approximate
01:10AM 39.9938 -14.9837 116° Southeast  Level FlightAware Approximate
01:11AM 39.9327 -14.8233 116° Southeast  Level FlightAware Approximate
01:12AM 39.8714 -14.6633 116° Southeast  Level FlightAware Approximate
01:13AM 39.8099 -14.5035 117° Southeast  Level FlightAware Approximate
01:14AM 39.7481 -14.3440 117° Southeast  Level FlightAware Approximate
01:15AM 39.6862 -14.1848 117° Southeast  Level FlightAware Approximate
01:16AM 39.6240 -14.0259 117° Southeast  Level FlightAware Approximate
01:17AM 39.5616 -13.8673 117° Southeast  Level FlightAware Approximate
01:18AM 39.4990 -13.7089 117° Southeast  Level FlightAware Approximate
01:19AM 39.4362 -13.5509 117° Southeast  Level FlightAware Approximate
01:20AM 39.3731 -13.3931 117° Southeast  Level FlightAware Approximate
01:21AM 39.3099 -13.2356 117° Southeast  Level FlightAware Approximate
01:22AM 39.2464 -13.0784 117° Southeast  Level FlightAware Approximate
01:23AM 39.1828 -12.9215 118° Southeast  Level FlightAware Approximate
01:24AM 39.1189 -12.7649 118° Southeast  Level FlightAware Approximate
01:25AM 39.0548 -12.6085 118° Southeast  Level FlightAware Approximate
01:26AM 38.9905 -12.4525 118° Southeast  Level FlightAware Approximate
01:27AM 38.9260 -12.2967 118° Southeast  Level FlightAware Approximate
01:28AM 38.8613 -12.1412 118° Southeast  Level FlightAware Approximate
01:29AM 38.7964 -11.9860 118° Southeast  Level FlightAware Approximate
01:30AM 38.7312 -11.8311 118° Southeast  Level FlightAware Approximate
01:31AM 38.6659 -11.6764 118° Southeast  Level FlightAware Approximate
01:32AM 38.6004 -11.5221 118° Southeast  Level FlightAware Approximate
01:33AM 38.5346 -11.3680 119° Southeast  Level FlightAware Approximate
01:34AM 38.4687 -11.2142 119° Southeast  Level FlightAware Approximate
01:35AM 38.4026 -11.0607 119° Southeast  Level FlightAware Approximate
01:36AM 38.3362 -10.9074 119° Southeast  Level FlightAware Approximate
01:37AM 38.2697 -10.7545 119° Southeast  Level FlightAware Approximate
01:38AM 38.2030 -10.6018 119° Southeast  Level FlightAware Approximate
01:39AM 38.1360 -10.4494 119° Southeast  Level FlightAware Approximate
01:40AM 38.0689 -10.2973 119° Southeast  Level FlightAware Approximate
01:41AM 38.0016 -10.1454 119° Southeast  Level FlightAware Approximate
01:42AM 37.9341 -9.9939 119° Southeast  Level FlightAware Approximate
01:43AM 37.8664 -9.8426 120° Southeast  Level FlightAware Approximate
01:44AM 37.7985 -9.6916 120° Southeast  Level FlightAware Approximate
01:45AM 37.7304 -9.5409 120° Southeast  Level FlightAware Approximate
01:46AM 37.6621 -9.3904 120° Southeast  Level FlightAware Approximate
01:47AM 37.5936 -9.2402 120° Southeast  Level FlightAware Approximate
01:48AM 37.5249 -9.0904 120° Southeast  Level FlightAware Approximate
01:49AM 37.4561 -8.9407 120° Southeast  Level FlightAware Approximate
01:50AM 37.3870 -8.7914 120° Southeast  Level FlightAware Approximate
01:51AM 37.3178 -8.6423 120° Southeast  Level FlightAware Approximate
01:52AM 37.2483 -8.4935 120° Southeast  Level FlightAware Approximate
01:53AM 37.1787 -8.3450 120° Southeast  Level FlightAware Approximate
01:54AM 37.1090 -8.1968 121° Southeast  Level FlightAware Approximate
01:55AM 37.0390 -8.0488 121° Southeast  Level FlightAware Approximate
01:56AM 37.0148 -7.8927 76° East  Level FlightAware Approximate
01:57AM 37.0478 -7.7258 76° East  Level FlightAware Approximate
01:58AM 37.0807 -7.5588 76° East  Level FlightAware Approximate
01:59AM 37.1133 -7.3917 76° East  Level FlightAware Approximate
02:00AM 37.1456 -7.2244 76° East  Level FlightAware Approximate
02:01AM 37.1778 -7.0570 76° East  Level FlightAware Approximate
02:02AM 37.2097 -6.8894 77° East  Level FlightAware Approximate
02:03AM 37.2413 -6.7217 77° East  Level FlightAware Approximate
02:04AM 37.2728 -6.5539 77° East  Level FlightAware Approximate
02:05AM 37.3040 -6.3859 77° East  Level FlightAware Approximate
02:06AM 37.3349 -6.2178 77° East  Level FlightAware Approximate
02:07AM 37.3656 -6.0495 77° East  Level FlightAware Approximate
02:08AM 37.3961 -5.8811 77° East  Level FlightAware Approximate
02:09AM 37.3957 -5.7180 118° Southeast  Level FlightAware Approximate
02:10AM 37.3300 -5.5663 119° Southeast  Level FlightAware Approximate
02:11AM 37.2642 -5.4149 119° Southeast  Level FlightAware Approximate
02:12AM 37.1982 -5.2638 119° Southeast  Level FlightAware Approximate
02:13AM 37.1320 -5.1129 119° Southeast  Level FlightAware Approximate
02:14AM 37.0656 -4.9623 119° Southeast  Level FlightAware Approximate
02:15AM 36.9991 -4.8120 119° Southeast  Level FlightAware Approximate
02:16AM 36.9323 -4.6620 119° Southeast  Level FlightAware Approximate
02:17AM 36.8653 -4.5122 119° Southeast  Level FlightAware Approximate
02:18AM 36.8018 -4.3626 62° Northeast  Level FlightAware Approximate
02:19AM 36.8665 -4.2114 62° Northeast  Level FlightAware Approximate
02:20AM 36.9311 -4.0600 62° Northeast  Level FlightAware Approximate
02:21AM 36.9955 -3.9083 62° Northeast  Level FlightAware Approximate
02:22AM 37.0597 -3.7564 62° Northeast  Level FlightAware Approximate
02:23AM 37.1237 -3.6042 62° Northeast  Level FlightAware Approximate
02:24AM 37.1875 -3.4517 62° Northeast  Level FlightAware Approximate
02:25AM 37.2511 -3.2990 62° Northeast  Level FlightAware Approximate
02:26AM 37.3145 -3.1460 62° Northeast  Level FlightAware Approximate
02:27AM 37.3777 -2.9928 63° Northeast  Level FlightAware Approximate
02:28AM 37.4408 -2.8393 63° Northeast  Level FlightAware Approximate
02:29AM 37.5036 -2.6856 63° Northeast  Level FlightAware Approximate
02:30AM 37.5662 -2.5316 63° Northeast  Level FlightAware Approximate
02:31AM 37.6286 -2.3774 63° Northeast  Level FlightAware Approximate
02:32AM 37.6908 -2.2228 63° Northeast  Level FlightAware Approximate
02:33AM 37.7528 -2.0680 63° Northeast  Level FlightAware Approximate
02:34AM 37.8146 -1.9130 63° Northeast  Level FlightAware Approximate
02:35AM 37.8761 -1.7576 63° Northeast  Level FlightAware Approximate
02:36AM 37.9375 -1.6020 63° Northeast  Level FlightAware Approximate
02:37AM 37.9986 -1.4462 63° Northeast  Level FlightAware Approximate
02:38AM 38.0596 -1.2901 64° Northeast  Level FlightAware Approximate
02:39AM 38.1203 -1.1337 64° Northeast  Level FlightAware Approximate
02:40AM 38.1822 -0.9779 63° Northeast  Level FlightAware Approximate
02:41AM 38.2443 -0.8222 63° Northeast  Level FlightAware Approximate
02:42AM 38.3061 -0.6661 63° Northeast  Level FlightAware Approximate
02:43AM 38.3678 -0.5098 63° Northeast  Level FlightAware Approximate
02:44AM 38.4292 -0.3532 63° Northeast  Level FlightAware Approximate
02:45AM 38.4905 -0.1964 63° Northeast  Level FlightAware Approximate
02:46AM 38.5515 -0.0392 64° Northeast  Level FlightAware Approximate
02:47AM 38.6071 0.1212 67° East  Level FlightAware Approximate
02:48AM 38.6665 0.2794 62° Northeast  Level FlightAware Approximate
02:49AM 38.7299 0.4353 64° Northeast  Level FlightAware Approximate
02:50AM 38.7873 0.5951 67° East  Level FlightAware Approximate
02:51AM 38.8442 0.7551 57° Northeast  Level FlightAware Approximate
02:52AM 38.9024 0.9140 68° East  Level FlightAware Approximate
02:53AM 38.9540 1.0774 64° Northeast  Level FlightAware Approximate
02:54AM 39.0137 1.2364 64° Northeast  Level FlightAware Approximate
02:55AM 39.0732 1.3956 64° Northeast  Level FlightAware Approximate
02:56AM 39.1325 1.5552 64° Northeast  Level FlightAware Approximate
02:57AM 39.1915 1.7149 64° Northeast  Level FlightAware Approximate
02:58AM 39.2478 1.8765 67° East  Level FlightAware Approximate
02:59AM 39.3021 2.0393 67° East  Level FlightAware Approximate
03:00AM 39.3563 2.2022 67° East  Level FlightAware Approximate
03:01AM 39.4194 2.3598 62° Northeast  Level FlightAware Approximate
03:02AM 39.4654 2.5254 78° East  Level FlightAware Approximate
03:03AM 39.5287 2.6693 67° East  Level FlightAware Approximate
03:04AM 39.5500 2.7333 67° East  Level FlightAware Approximate
03:05AM 39.5517 2.7388 67° East  Level Estimated
03:06AM 39.5500 2.7333 67° East  Level FlightAware Approximate
03:07AM 39.5517 2.7388 67° East  Level Estimated
03:08AM 39.5500 2.7333 67° East  Level FlightAware Approximate
03:09AM 39.5517 2.7388 67° East  Level Estimated
03:10AM 39.5500 2.7333 67° East  Level FlightAware Approximate
03:11AM 39.5517 2.7388 67° East  Level Estimated
03:12AM 39.5500 2.7333 67° East  Level FlightAware Approximate
03:13AM 39.5517 2.7388 67° East  Level Estimated
03:14AM 39.5500 2.7333 67° East  Level FlightAware Approximate
03:15AM 39.5517 2.7388 67° East  Level Estimated
03:16AM 39.5500 2.7333 67° East  Level FlightAware Approximate
03:17AM 39.5517 2.7388 67° East  Level Estimated
03:18AM 39.5500 2.7333 67° East  Level FlightAware Approximate
03:19AM 39.5517 2.7388 67° East  Level Estimated
03:20AM 39.5500 2.7333 67° East  Level FlightAware Approximate
03:21AM 39.5517 2.7388 67° East  Level Estimated
03:22AM 39.5500 2.7333 67° East  Level FlightAware Approximate
03:23AM 39.5517 2.7388 67° East  Level Estimated